createdAt,value
2019-02-20T00:00:27.297Z,21.63
2019-02-20T00:02:57.703Z,21.67
2019-02-20T00:05:29.682Z,21.25
2019-02-20T00:08:00.272Z,21.40
2019-02-20T00:10:32.621Z,21.67
2019-02-20T00:13:05.989Z,21.87
2019-02-20T00:15:38.641Z,22.13
2019-02-20T00:20:44.813Z,22.40
2019-02-20T00:23:16.752Z,21.60
2019-02-20T00:25:45.813Z,23.30
2019-02-20T00:28:16.660Z,22.87
2019-02-20T00:30:46.312Z,23.07
2019-02-20T00:33:17.678Z,23.13
2019-02-20T00:35:47.266Z,22.30
2019-02-20T00:38:17.316Z,22.00
2019-02-20T00:40:47.333Z,22.00
2019-02-20T00:43:17.765Z,22.57
2019-02-20T00:45:53.135Z,21.80
2019-02-20T00:48:25.582Z,21.73
2019-02-20T00:50:57.506Z,21.87
2019-02-20T00:53:28.967Z,21.97
2019-02-20T00:55:59.378Z,22.45
2019-02-20T00:58:29.296Z,23.10
2019-02-20T01:00:59.825Z,23.13
2019-02-20T01:03:29.572Z,23.03
2019-02-20T01:06:00.930Z,22.07
2019-02-20T01:08:31.722Z,22.53
2019-02-20T01:11:08.051Z,22.67
2019-02-20T01:13:38.814Z,23.47
2019-02-20T01:16:12.157Z,22.47
2019-02-20T01:18:43.283Z,22.93
2019-02-20T01:21:20.014Z,23.50
2019-02-20T01:23:50.787Z,22.70
2019-02-20T01:26:20.642Z,23.23
2019-02-20T01:28:51.319Z,23.63
2019-02-20T01:31:21.844Z,22.30
2019-02-20T01:33:51.501Z,22.77
2019-02-20T01:36:22.288Z,22.40
2019-02-20T01:38:53.685Z,23.23
2019-02-20T01:41:23.394Z,23.53
2019-02-20T01:43:54.782Z,23.05
2019-02-20T01:46:25.192Z,22.77
2019-02-20T01:48:55.439Z,23.30
2019-02-20T01:51:27.328Z,23.53
2019-02-20T01:53:57.678Z,23.52
2019-02-20T01:56:28.292Z,23.87
2019-02-20T01:59:00.918Z,23.30
2019-02-20T02:01:33.391Z,23.60
2019-02-20T02:04:04.361Z,23.20
2019-02-20T02:06:34.382Z,24.97
2019-02-20T02:09:06.618Z,25.70
2019-02-20T02:11:37.197Z,24.70
2019-02-20T02:14:07.630Z,23.83
2019-02-20T02:16:38.222Z,23.73
2019-02-20T02:19:09.454Z,23.87
2019-02-20T02:21:39.568Z,23.90
2019-02-20T02:24:10.798Z,22.93
2019-02-20T02:26:43.279Z,23.43
2019-02-20T02:29:14.615Z,23.97
2019-02-20T02:31:47.367Z,24.27
2019-02-20T02:34:22.067Z,22.93
2019-02-20T02:36:53.449Z,22.10
2019-02-20T02:39:24.813Z,23.33
2019-02-20T02:41:54.478Z,21.05
2019-02-20T02:44:24.310Z,22.13
2019-02-20T02:46:55.694Z,21.87
2019-02-20T02:49:26.549Z,22.77
2019-02-20T02:51:57.020Z,24.10
2019-02-20T02:54:26.286Z,22.67
2019-02-20T02:56:57.662Z,23.10
2019-02-20T02:59:28.127Z,25.40
2019-02-20T03:01:58.535Z,23.87
2019-02-20T03:04:28.896Z,24.53
2019-02-20T03:06:59.305Z,23.37
2019-02-20T03:09:27.825Z,25.77
2019-02-20T03:11:57.663Z,26.80
2019-02-20T03:14:28.501Z,25.37
2019-02-20T03:16:58.964Z,23.57
2019-02-20T03:19:29.736Z,23.70
2019-02-20T03:22:00.487Z,23.98
2019-02-20T03:24:30.351Z,22.60
2019-02-20T03:29:36.833Z,24.23
2019-02-20T03:32:09.973Z,25.10
2019-02-20T03:34:40.352Z,25.70
2019-02-20T03:37:09.449Z,26.63
2019-02-20T03:39:38.290Z,26.43
2019-02-20T03:42:07.370Z,28.00
2019-02-20T03:44:35.638Z,26.90
2019-02-20T03:49:39.703Z,24.50
2019-02-20T03:52:12.228Z,24.80
2019-02-20T03:54:41.999Z,23.83
2019-02-20T03:57:11.699Z,23.53
2019-02-20T03:59:43.024Z,23.33
2019-02-20T04:02:13.043Z,24.07
2019-02-20T04:04:44.345Z,25.23
2019-02-20T04:07:13.882Z,23.13
2019-02-20T04:09:43.971Z,24.35
2019-02-20T04:12:17.395Z,23.57
2019-02-20T04:14:47.183Z,24.77
2019-02-20T04:17:17.012Z,24.17
2019-02-20T04:19:48.368Z,25.53
2019-02-20T04:22:20.335Z,24.60
2019-02-20T04:24:49.999Z,24.23
2019-02-20T04:27:21.331Z,25.40
2019-02-20T04:29:52.091Z,24.60
2019-02-20T04:32:23.462Z,24.40
2019-02-20T04:34:54.222Z,23.87
2019-02-20T04:37:27.063Z,23.43
2019-02-20T04:39:57.710Z,23.73
2019-02-20T04:42:28.401Z,22.90
2019-02-20T04:44:58.688Z,23.83
2019-02-20T04:47:29.298Z,24.87
2019-02-20T04:49:59.184Z,24.65
2019-02-20T04:52:29.626Z,25.63
2019-02-20T04:54:59.987Z,23.80
2019-02-20T04:57:33.366Z,23.77
2019-02-20T05:00:04.114Z,26.03
2019-02-20T05:02:34.798Z,25.03
2019-02-20T05:05:11.367Z,25.30
2019-02-20T05:07:42.920Z,23.40
2019-02-20T05:10:14.125Z,26.97
2019-02-20T05:12:45.551Z,25.30
2019-02-20T05:15:15.906Z,24.87
2019-02-20T05:17:47.584Z,25.43
2019-02-20T05:20:15.869Z,23.97
2019-02-20T05:22:44.140Z,26.87
2019-02-20T05:25:14.963Z,35.10
2019-02-20T05:27:44.815Z,34.90
2019-02-20T05:30:14.442Z,33.43
2019-02-20T05:32:47.696Z,30.40
2019-02-20T05:35:18.955Z,31.23
2019-02-20T05:37:50.826Z,31.55
2019-02-20T05:40:22.158Z,31.20
2019-02-20T05:42:52.820Z,29.17
2019-02-20T05:45:24.183Z,30.17
2019-02-20T05:47:55.078Z,28.02
2019-02-20T05:50:26.286Z,27.03
2019-02-20T05:52:56.850Z,29.43
2019-02-20T05:55:28.243Z,26.68
2019-02-20T05:58:00.308Z,27.45
2019-02-20T06:00:31.060Z,27.10
2019-02-20T06:03:01.525Z,27.77
2019-02-20T06:05:32.277Z,25.50
2019-02-20T06:08:03.028Z,26.70
2019-02-20T06:10:33.839Z,31.07
2019-02-20T06:13:05.239Z,30.17
2019-02-20T06:15:36.721Z,30.53
2019-02-20T06:18:07.016Z,30.33
2019-02-20T06:20:38.486Z,33.10
2019-02-20T06:23:09.283Z,36.30
2019-02-20T06:25:40.600Z,35.50
2019-02-20T06:28:11.218Z,38.73
2019-02-20T06:30:40.237Z,38.93
2019-02-20T06:33:10.802Z,39.67
2019-02-20T06:35:40.668Z,40.33
2019-02-20T06:38:11.747Z,40.37
2019-02-20T06:40:43.318Z,43.60
2019-02-20T06:43:13.126Z,39.33
2019-02-20T06:45:43.013Z,35.83
2019-02-20T06:48:11.544Z,37.33
2019-02-20T06:50:41.823Z,36.33
2019-02-20T06:53:13.238Z,36.50
2019-02-20T06:55:47.067Z,33.87
2019-02-20T06:58:17.104Z,33.73
2019-02-20T07:00:47.720Z,34.47
2019-02-20T07:03:18.121Z,35.60
2019-02-20T07:05:49.183Z,30.17
2019-02-20T07:08:33.070Z,31.10
2019-02-20T07:11:19.741Z,30.53
2019-02-20T07:13:58.800Z,34.65
2019-02-20T07:16:32.067Z,32.60
2019-02-20T07:19:08.607Z,34.57
2019-02-20T07:22:04.315Z,34.33
2019-02-20T07:24:42.303Z,32.37
2019-02-20T07:27:18.483Z,36.33
2019-02-20T07:30:01.564Z,38.07
2019-02-20T07:32:33.961Z,36.87
2019-02-20T07:35:08.682Z,35.73
2019-02-20T07:37:38.671Z,39.23
2019-02-20T07:42:46.638Z,39.57
2019-02-20T07:45:16.689Z,38.97
2019-02-20T07:47:46.670Z,38.03
2019-02-20T07:50:16.585Z,37.40
2019-02-20T07:52:46.901Z,39.63
2019-02-20T07:55:18.353Z,33.97
2019-02-20T07:57:49.267Z,37.83
2019-02-20T08:00:23.727Z,36.07
2019-02-20T08:02:55.077Z,34.63
2019-02-20T08:05:25.746Z,34.53
2019-02-20T08:07:57.074Z,35.00
2019-02-20T08:10:26.752Z,34.63
2019-02-20T08:12:58.067Z,32.97
2019-02-20T08:15:28.689Z,36.10
2019-02-20T08:17:57.770Z,37.40
2019-02-20T08:20:36.599Z,35.60
2019-02-20T08:23:06.980Z,35.23
2019-02-20T08:25:38.469Z,35.80
2019-02-20T08:28:10.053Z,36.10
2019-02-20T08:30:42.648Z,33.83
2019-02-20T08:33:12.624Z,33.73
2019-02-20T08:35:42.639Z,34.60
2019-02-20T08:40:48.030Z,33.33
2019-02-20T08:43:18.062Z,35.47
2019-02-20T08:45:48.625Z,35.10
2019-02-20T08:48:20.024Z,36.40
2019-02-20T08:50:50.099Z,35.57
2019-02-20T08:53:22.188Z,34.50
2019-02-20T08:55:52.142Z,36.42
2019-02-20T08:58:22.690Z,34.57
2019-02-20T09:00:52.688Z,37.23
2019-02-20T09:03:22.433Z,36.50
2019-02-20T09:05:54.900Z,33.53
2019-02-20T09:08:25.298Z,32.15
2019-02-20T09:10:56.727Z,30.47
2019-02-20T09:13:28.151Z,34.63
2019-02-20T09:15:57.955Z,29.60
2019-02-20T09:18:28.393Z,31.97
2019-02-20T09:20:59.245Z,32.73
2019-02-20T09:23:30.073Z,33.47
2019-02-20T09:26:00.849Z,34.67
2019-02-20T09:28:32.275Z,32.00
2019-02-20T09:31:03.703Z,32.70
2019-02-20T09:33:35.153Z,32.60
2019-02-20T09:36:05.902Z,32.67
2019-02-20T09:38:35.573Z,32.58
2019-02-20T09:41:08.327Z,32.20
2019-02-20T09:43:37.382Z,32.05
2019-02-20T09:46:07.701Z,33.03
2019-02-20T09:48:41.207Z,32.10
2019-02-20T09:51:11.662Z,31.73
2019-02-20T09:53:41.311Z,31.47
2019-02-20T09:56:12.496Z,32.50
2019-02-20T09:58:43.765Z,31.83
2019-02-20T10:01:14.133Z,31.23
2019-02-20T10:03:44.708Z,31.40
2019-02-20T10:06:17.007Z,32.17
2019-02-20T10:08:46.613Z,33.20
2019-02-20T10:11:19.834Z,32.40
2019-02-20T10:13:52.193Z,33.88
2019-02-20T10:16:22.504Z,31.43
2019-02-20T10:18:53.776Z,34.07
2019-02-20T10:21:24.112Z,34.77
2019-02-20T10:23:55.523Z,32.98
2019-02-20T10:26:28.086Z,32.83
2019-02-20T10:28:59.600Z,31.50
2019-02-20T10:31:32.813Z,31.63
2019-02-20T10:34:06.837Z,30.40
2019-02-20T10:36:37.224Z,28.93
2019-02-20T10:39:08.104Z,30.60
2019-02-20T10:41:38.772Z,29.77
2019-02-20T10:44:08.648Z,29.70
2019-02-20T10:46:38.770Z,31.00
2019-02-20T10:49:15.795Z,33.23
2019-02-20T10:51:45.831Z,31.73
2019-02-20T10:54:15.518Z,33.43
2019-02-20T10:56:44.574Z,33.70
2019-02-20T10:59:16.784Z,33.07
2019-02-20T11:01:46.576Z,31.43
2019-02-20T11:04:17.906Z,32.83
2019-02-20T11:06:47.987Z,32.57
2019-02-20T11:09:19.419Z,33.18
2019-02-20T11:11:49.066Z,32.53
2019-02-20T11:14:18.891Z,31.97
2019-02-20T11:16:48.695Z,31.63
2019-02-20T11:19:18.273Z,31.33
2019-02-20T11:21:46.551Z,31.90
2019-02-20T11:24:14.803Z,35.27
2019-02-20T11:26:54.051Z,34.80
2019-02-20T11:29:16.863Z,35.13
2019-02-20T11:31:46.495Z,34.20
2019-02-20T11:34:16.330Z,35.97
2019-02-20T11:36:49.360Z,33.03
2019-02-20T11:39:18.544Z,29.10
2019-02-20T11:41:47.625Z,28.03
2019-02-20T11:44:20.959Z,29.03
2019-02-20T11:46:53.265Z,28.77
2019-02-20T11:49:24.506Z,27.13
2019-02-20T11:51:54.307Z,26.15
2019-02-20T11:54:24.610Z,28.73
2019-02-20T11:56:52.890Z,28.97
2019-02-20T11:59:23.734Z,30.13
2019-02-20T12:01:54.930Z,29.85
2019-02-20T12:04:25.678Z,30.93
2019-02-20T12:06:55.424Z,29.77
2019-02-20T12:09:26.836Z,29.83
2019-02-20T12:11:56.510Z,29.52
2019-02-20T12:14:25.631Z,29.40
2019-02-20T12:16:57.106Z,30.30
2019-02-20T12:19:29.417Z,31.30
2019-02-20T12:22:00.752Z,27.90
2019-02-20T12:24:30.592Z,30.53
2019-02-20T12:27:01.934Z,30.67
2019-02-20T12:29:33.262Z,28.77
2019-02-20T12:34:38.606Z,29.40
2019-02-20T12:37:11.368Z,30.90
2019-02-20T12:39:42.719Z,30.13
2019-02-20T12:42:15.115Z,29.07
2019-02-20T12:44:44.213Z,28.10
2019-02-20T12:47:15.577Z,28.17
2019-02-20T12:49:46.414Z,28.83
2019-02-20T12:52:17.745Z,29.07
2019-02-20T12:54:49.029Z,29.00
2019-02-20T12:57:18.783Z,29.60
2019-02-20T12:59:48.514Z,28.57
2019-02-20T13:02:16.797Z,28.30
2019-02-20T13:04:48.182Z,28.40
2019-02-20T13:07:17.822Z,27.70
2019-02-20T13:09:50.092Z,27.33
2019-02-20T13:22:42.346Z,27.53
2019-02-20T13:25:14.391Z,27.43
2019-02-20T13:27:45.613Z,26.33
2019-02-20T13:30:16.561Z,25.63
2019-02-20T13:32:51.025Z,24.43
2019-02-20T13:35:21.904Z,21.57
2019-02-20T13:37:52.687Z,23.35
2019-02-20T13:40:21.766Z,24.10
2019-02-20T13:42:52.434Z,24.07
2019-02-20T13:45:23.784Z,23.30
2019-02-20T13:47:54.708Z,24.80
2019-02-20T13:50:25.843Z,25.20
2019-02-20T13:52:55.951Z,26.90
2019-02-20T13:55:34.239Z,26.47
2019-02-20T13:58:00.905Z,25.43
2019-02-20T14:00:30.792Z,26.93
2019-02-20T14:03:04.082Z,26.07
2019-02-20T14:05:34.545Z,26.03
2019-02-20T14:08:05.845Z,26.50
2019-02-20T14:10:35.503Z,27.17
2019-02-20T14:13:10.746Z,25.03
2019-02-20T14:15:42.197Z,26.27
2019-02-20T14:18:12.619Z,26.50
2019-02-20T14:20:43.192Z,27.20
2019-02-20T14:23:13.578Z,26.83
2019-02-20T14:25:44.520Z,26.93
2019-02-20T14:28:14.456Z,27.07
2019-02-20T14:30:45.657Z,26.23
2019-02-20T14:33:16.107Z,25.73
2019-02-20T14:35:46.696Z,25.70
2019-02-20T14:38:16.556Z,25.90
2019-02-20T14:40:46.160Z,24.47
2019-02-20T14:43:17.626Z,27.10
2019-02-20T14:45:48.560Z,26.57
2019-02-20T14:48:19.213Z,24.83
2019-02-20T14:50:49.512Z,25.20
2019-02-20T14:53:19.464Z,26.93
2019-02-20T14:55:50.890Z,25.50
2019-02-20T14:58:21.513Z,26.70
2019-02-20T15:00:51.915Z,24.77
2019-02-20T15:03:21.576Z,27.70
2019-02-20T15:05:51.208Z,25.23
2019-02-20T15:08:22.740Z,26.03
2019-02-20T15:10:54.130Z,25.37
2019-02-20T15:13:26.568Z,25.67
2019-02-20T15:15:59.888Z,27.90
2019-02-20T15:18:30.076Z,26.97
2019-02-20T15:21:00.080Z,26.20
2019-02-20T15:23:30.503Z,25.77
2019-02-20T15:26:00.592Z,26.20
2019-02-20T15:28:30.252Z,25.93
2019-02-20T15:31:02.210Z,24.60
2019-02-20T15:33:31.879Z,23.73
2019-02-20T15:38:37.230Z,24.83
2019-02-20T15:41:07.878Z,25.10
2019-02-20T15:43:36.154Z,24.87
2019-02-20T15:48:41.558Z,25.00
2019-02-20T15:51:24.390Z,24.10
2019-02-20T15:53:55.900Z,23.30
2019-02-20T15:56:26.674Z,25.13
2019-02-20T15:58:56.551Z,23.73
2019-02-20T16:01:27.405Z,24.17
2019-02-20T16:03:58.827Z,23.32
2019-02-20T16:06:29.631Z,25.97
2019-02-20T16:08:59.467Z,23.93
2019-02-20T16:11:28.247Z,23.23
2019-02-20T16:13:56.542Z,22.70
2019-02-20T16:16:28.219Z,23.23
2019-02-20T16:18:59.785Z,25.10
2019-02-20T16:21:31.248Z,23.83
2019-02-20T16:24:01.277Z,24.00
2019-02-20T16:26:32.652Z,23.70
2019-02-20T16:29:03.412Z,24.50
2019-02-20T16:31:35.634Z,23.33
2019-02-20T16:34:06.356Z,25.00
2019-02-20T16:36:34.935Z,24.13
2019-02-20T16:39:06.858Z,25.50
2019-02-20T16:41:36.713Z,25.30
2019-02-20T16:44:07.115Z,25.17
2019-02-20T16:46:37.200Z,26.07
2019-02-20T16:49:08.693Z,24.73
2019-02-20T16:51:38.287Z,26.93
2019-02-20T16:54:08.713Z,27.13
2019-02-20T16:56:39.409Z,27.33
2019-02-20T16:59:10.233Z,26.50
2019-02-20T17:01:41.640Z,27.70
2019-02-20T17:04:12.433Z,27.80
2019-02-20T17:06:42.256Z,27.33
2019-02-20T17:09:13.108Z,27.43
2019-02-20T17:11:44.502Z,28.10
2019-02-20T17:14:19.061Z,27.33
2019-02-20T17:16:52.368Z,27.77
2019-02-20T17:19:24.210Z,27.03
2019-02-20T17:21:55.570Z,28.67
2019-02-20T17:24:26.379Z,29.50
2019-02-20T17:26:57.060Z,29.07
2019-02-20T17:29:28.273Z,35.17
2019-02-20T17:31:59.223Z,26.93
2019-02-20T17:34:29.151Z,29.10
2019-02-20T17:36:59.061Z,27.60
2019-02-20T17:39:31.024Z,27.83
2019-02-20T17:42:01.005Z,27.07
2019-02-20T17:44:32.337Z,28.77
2019-02-20T17:47:08.433Z,27.33
2019-02-20T17:49:37.998Z,26.60
2019-02-20T17:52:11.222Z,28.00
2019-02-20T17:54:42.525Z,34.50
2019-02-20T17:57:15.824Z,28.27
2019-02-20T17:59:46.477Z,28.50
2019-02-20T18:02:17.744Z,29.77
2019-02-20T18:04:50.417Z,26.77
2019-02-20T18:07:21.952Z,29.83
2019-02-20T18:09:53.327Z,28.83
2019-02-20T18:12:25.462Z,28.87
2019-02-20T18:14:54.794Z,28.13
2019-02-20T18:17:23.918Z,29.30
2019-02-20T18:19:54.223Z,28.98
2019-02-20T18:22:23.909Z,29.90
2019-02-20T18:24:52.973Z,30.17
2019-02-20T18:27:22.072Z,29.77
2019-02-20T18:29:51.774Z,28.07
2019-02-20T18:32:23.028Z,28.03
2019-02-20T18:34:54.428Z,29.27
2019-02-20T18:37:24.984Z,28.53
2019-02-20T18:39:56.424Z,29.35
2019-02-20T18:42:26.534Z,32.27
2019-02-20T18:44:57.431Z,30.20
2019-02-20T18:47:30.240Z,30.37
2019-02-20T18:50:00.980Z,27.97
2019-02-20T18:52:32.277Z,29.67
2019-02-20T18:55:06.175Z,31.33
2019-02-20T18:57:35.310Z,31.87
2019-02-20T19:00:05.003Z,30.20
2019-02-20T19:02:36.144Z,29.60
2019-02-20T19:05:07.770Z,29.50
2019-02-20T19:07:38.235Z,29.03
2019-02-20T19:10:14.364Z,31.27
2019-02-20T19:12:46.748Z,29.87
2019-02-20T19:15:28.880Z,30.10
2019-02-20T19:18:02.274Z,29.65
2019-02-20T19:20:37.423Z,29.48
2019-02-20T19:23:16.840Z,29.63
2019-02-20T19:25:53.386Z,30.00
2019-02-20T19:28:29.787Z,28.57
2019-02-20T19:31:37.753Z,30.17
2019-02-20T19:34:21.556Z,32.00
2019-02-20T19:37:20.900Z,31.07
2019-02-20T19:40:13.270Z,30.63
2019-02-20T19:43:12.719Z,31.48
2019-02-20T19:46:05.330Z,31.47
2019-02-20T19:48:52.586Z,30.00
2019-02-20T19:51:42.133Z,30.27
2019-02-20T19:54:24.206Z,31.40
2019-02-20T19:56:58.082Z,31.90
2019-02-20T19:59:40.513Z,29.93
2019-02-20T20:02:28.619Z,31.60
2019-02-20T20:05:11.159Z,32.57
2019-02-20T20:07:46.152Z,31.80
2019-02-20T20:10:21.899Z,31.03
2019-02-20T20:13:19.452Z,30.50
2019-02-20T20:16:14.555Z,31.02
2019-02-20T20:19:08.051Z,31.17
2019-02-20T20:21:59.335Z,31.77
2019-02-20T20:24:44.069Z,29.53
2019-02-20T20:27:25.940Z,30.83
2019-02-20T20:30:15.587Z,28.50
2019-02-20T20:32:56.901Z,30.97
2019-02-20T20:35:53.870Z,31.17
2019-02-20T20:38:40.948Z,30.27
2019-02-20T20:41:35.261Z,27.17
2019-02-20T20:44:12.954Z,28.73
2019-02-20T20:46:51.178Z,30.60
2019-02-20T20:49:34.483Z,29.10
2019-02-20T20:52:09.611Z,31.10
2019-02-20T20:55:15.811Z,30.60
2019-02-20T20:57:53.854Z,31.57
2019-02-20T21:00:46.196Z,29.17
2019-02-20T21:03:22.641Z,28.43
2019-02-20T21:06:11.920Z,29.90
2019-02-20T21:08:45.488Z,27.93
2019-02-20T21:11:27.439Z,27.23
2019-02-20T21:14:11.987Z,27.60
2019-02-20T21:16:50.802Z,27.67
2019-02-20T21:19:42.166Z,27.47
2019-02-20T21:22:27.121Z,25.47
2019-02-20T21:27:43.641Z,26.77
2019-02-20T21:30:39.634Z,26.03
2019-02-20T21:33:21.415Z,25.50
2019-02-20T21:35:56.522Z,26.15
2019-02-20T21:38:53.557Z,26.53
2019-02-20T21:41:25.945Z,27.77
2019-02-20T21:44:04.236Z,32.20
2019-02-20T21:47:12.751Z,28.67
2019-02-20T21:52:52.213Z,27.13
2019-02-20T21:55:30.218Z,31.63
2019-02-20T21:58:05.414Z,26.30
2019-02-20T22:00:40.362Z,28.27
2019-02-20T22:03:15.690Z,25.20
2019-02-20T22:05:58.496Z,26.83
2019-02-20T22:08:49.973Z,26.73
2019-02-20T22:11:35.418Z,27.03
2019-02-20T22:14:33.938Z,27.33
2019-02-20T22:17:22.004Z,25.57
2019-02-20T22:20:03.284Z,26.17
2019-02-20T22:22:48.531Z,27.30
2019-02-20T22:25:36.786Z,26.80
2019-02-20T22:28:37.893Z,25.80
2019-02-20T22:31:40.660Z,25.53
2019-02-20T22:34:18.580Z,24.93
2019-02-20T22:37:09.761Z,25.83
2019-02-20T22:40:04.023Z,25.97
2019-02-20T22:42:40.295Z,25.47
2019-02-20T22:45:16.330Z,25.53
2019-02-20T22:47:57.210Z,25.70
2019-02-20T22:50:55.373Z,24.97
2019-02-20T22:53:28.298Z,24.73
2019-02-20T22:56:12.583Z,26.90
2019-02-20T22:58:54.032Z,27.20
2019-02-20T23:01:41.328Z,26.10
2019-02-20T23:04:14.859Z,25.95
2019-02-20T23:06:48.237Z,25.83
2019-02-20T23:09:36.438Z,26.83
2019-02-20T23:12:09.968Z,26.07
2019-02-20T23:14:58.931Z,26.40
2019-02-20T23:17:30.413Z,25.80
2019-02-20T23:20:00.842Z,27.03
2019-02-20T23:22:31.252Z,26.67
2019-02-20T23:25:03.283Z,27.73
2019-02-20T23:27:33.739Z,26.67
2019-02-20T23:30:12.535Z,27.47
2019-02-20T23:32:38.161Z,26.63
2019-02-20T23:35:09.777Z,27.77
2019-02-20T23:37:40.465Z,28.17
2019-02-20T23:40:12.372Z,26.10
2019-02-20T23:42:44.752Z,28.40
2019-02-20T23:45:14.629Z,28.37
2019-02-20T23:47:48.841Z,29.07
2019-02-20T23:50:18.986Z,30.00
2019-02-20T23:52:50.036Z,29.13
2019-02-20T23:55:21.399Z,28.60
2019-02-20T23:57:52.752Z,28.80
